sensor_id;sensor_type;location;lat;lon;timestamp;P1;durP1;ratioP1;P2;durP2;ratioP2
22648;SDS011;11491;41.942;24.220;2023-02-21T00:00:42;21.33;;;12.20;;
22648;SDS011;11491;41.942;24.220;2023-02-21T00:03:26;22.08;;;11.82;;
22648;SDS011;11491;41.942;24.220;2023-02-21T00:06:10;18.25;;;8.25;;
22648;SDS011;11491;41.942;24.220;2023-02-21T00:11:40;32.90;;;16.83;;
22648;SDS011;11491;41.942;24.220;2023-02-21T00:14:25;18.27;;;9.45;;
22648;SDS011;11491;41.942;24.220;2023-02-21T00:17:09;27.25;;;12.98;;
22648;SDS011;11491;41.942;24.220;2023-02-21T00:19:53;23.08;;;11.80;;
22648;SDS011;11491;41.942;24.220;2023-02-21T00:22:37;27.05;;;13.60;;
22648;SDS011;11491;41.942;24.220;2023-02-21T00:25:23;41.60;;;26.63;;
22648;SDS011;11491;41.942;24.220;2023-02-21T00:28:07;15.90;;;10.50;;
22648;SDS011;11491;41.942;24.220;2023-02-21T00:30:51;18.65;;;8.80;;
22648;SDS011;11491;41.942;24.220;2023-02-21T00:33:35;10.40;;;5.70;;
22648;SDS011;11491;41.942;24.220;2023-02-21T00:36:18;34.13;;;17.45;;
22648;SDS011;11491;41.942;24.220;2023-02-21T00:41:48;26.08;;;12.20;;
22648;SDS011;11491;41.942;24.220;2023-02-21T00:44:32;22.52;;;11.10;;
22648;SDS011;11491;41.942;24.220;2023-02-21T00:47:16;16.25;;;8.85;;
22648;SDS011;11491;41.942;24.220;2023-02-21T00:50:00;44.90;;;18.33;;
22648;SDS011;11491;41.942;24.220;2023-02-21T00:52:44;44.05;;;17.85;;
22648;SDS011;11491;41.942;24.220;2023-02-21T00:58:13;35.35;;;15.70;;
22648;SDS011;11491;41.942;24.220;2023-02-21T01:00:57;26.58;;;13.90;;
22648;SDS011;11491;41.942;24.220;2023-02-21T01:06:25;20.58;;;10.55;;
22648;SDS011;11491;41.942;24.220;2023-02-21T01:09:09;21.42;;;10.30;;
22648;SDS011;11491;41.942;24.220;2023-02-21T01:11:53;22.27;;;10.20;;
22648;SDS011;11491;41.942;24.220;2023-02-21T01:14:39;22.58;;;10.25;;
22648;SDS011;11491;41.942;24.220;2023-02-21T01:17:23;13.48;;;7.00;;
22648;SDS011;11491;41.942;24.220;2023-02-21T01:22:52;11.35;;;5.15;;
22648;SDS011;11491;41.942;24.220;2023-02-21T01:25:36;36.35;;;17.80;;
22648;SDS011;11491;41.942;24.220;2023-02-21T01:31:06;18.52;;;9.55;;
22648;SDS011;11491;41.942;24.220;2023-02-21T01:33:50;12.40;;;5.75;;
22648;SDS011;11491;41.942;24.220;2023-02-21T01:36:34;9.98;;;5.03;;
22648;SDS011;11491;41.942;24.220;2023-02-21T01:42:02;23.88;;;12.75;;
22648;SDS011;11491;41.942;24.220;2023-02-21T01:44:46;22.52;;;12.65;;
22648;SDS011;11491;41.942;24.220;2023-02-21T01:47:33;28.48;;;15.32;;
22648;SDS011;11491;41.942;24.220;2023-02-21T01:50:19;25.17;;;11.80;;
22648;SDS011;11491;41.942;24.220;2023-02-21T01:53:06;18.63;;;8.43;;
22648;SDS011;11491;41.942;24.220;2023-02-21T01:55:54;15.68;;;7.28;;
22648;SDS011;11491;41.942;24.220;2023-02-21T01:58:39;16.60;;;6.68;;
22648;SDS011;11491;41.942;24.220;2023-02-21T02:04:31;17.90;;;7.07;;
22648;SDS011;11491;41.942;24.220;2023-02-21T02:07:16;15.88;;;7.82;;
22648;SDS011;11491;41.942;24.220;2023-02-21T02:10:00;17.80;;;8.32;;
22648;SDS011;11491;41.942;24.220;2023-02-21T02:15:49;19.90;;;13.80;;
22648;SDS011;11491;41.942;24.220;2023-02-21T02:18:31;16.95;;;10.68;;
22648;SDS011;11491;41.942;24.220;2023-02-21T02:24:19;6.63;;;3.33;;
22648;SDS011;11491;41.942;24.220;2023-02-21T02:32:56;10.75;;;8.55;;
22648;SDS011;11491;41.942;24.220;2023-02-21T02:35:42;10.13;;;6.95;;
22648;SDS011;11491;41.942;24.220;2023-02-21T02:38:15;10.15;;;6.57;;
22648;SDS011;11491;41.942;24.220;2023-02-21T02:40:49;25.52;;;14.65;;
22648;SDS011;11491;41.942;24.220;2023-02-21T02:43:24;31.13;;;20.42;;
22648;SDS011;11491;41.942;24.220;2023-02-21T02:45:55;17.52;;;12.27;;
22648;SDS011;11491;41.942;24.220;2023-02-21T02:48:27;11.23;;;7.50;;
22648;SDS011;11491;41.942;24.220;2023-02-21T02:51:00;10.40;;;6.75;;
22648;SDS011;11491;41.942;24.220;2023-02-21T02:53:31;9.00;;;4.80;;
22648;SDS011;11491;41.942;24.220;2023-02-21T02:55:58;7.22;;;4.38;;
22648;SDS011;11491;41.942;24.220;2023-02-21T02:58:27;8.23;;;3.47;;
22648;SDS011;11491;41.942;24.220;2023-02-21T03:01:06;6.70;;;4.32;;
22648;SDS011;11491;41.942;24.220;2023-02-21T03:03:50;14.32;;;8.63;;
22648;SDS011;11491;41.942;24.220;2023-02-21T03:06:29;17.90;;;11.25;;
22648;SDS011;11491;41.942;24.220;2023-02-21T03:09:06;10.18;;;6.47;;
22648;SDS011;11491;41.942;24.220;2023-02-21T03:11:39;9.45;;;5.60;;
22648;SDS011;11491;41.942;24.220;2023-02-21T03:14:13;9.65;;;5.20;;
22648;SDS011;11491;41.942;24.220;2023-02-21T03:16:43;7.32;;;4.07;;
22648;SDS011;11491;41.942;24.220;2023-02-21T03:19:14;7.45;;;4.35;;
22648;SDS011;11491;41.942;24.220;2023-02-21T03:21:47;7.80;;;4.55;;
22648;SDS011;11491;41.942;24.220;2023-02-21T03:24:18;8.77;;;4.32;;
22648;SDS011;11491;41.942;24.220;2023-02-21T03:26:47;7.03;;;3.95;;
22648;SDS011;11491;41.942;24.220;2023-02-21T03:29:17;8.07;;;4.38;;
22648;SDS011;11491;41.942;24.220;2023-02-21T03:31:46;6.15;;;3.45;;
22648;SDS011;11491;41.942;24.220;2023-02-21T03:34:18;5.78;;;2.80;;
22648;SDS011;11491;41.942;24.220;2023-02-21T03:36:47;5.63;;;2.80;;
22648;SDS011;11491;41.942;24.220;2023-02-21T03:39:14;4.90;;;2.90;;
22648;SDS011;11491;41.942;24.220;2023-02-21T03:41:41;7.68;;;4.63;;
22648;SDS011;11491;41.942;24.220;2023-02-21T03:44:08;5.85;;;3.70;;
22648;SDS011;11491;41.942;24.220;2023-02-21T03:46:34;6.72;;;4.53;;
22648;SDS011;11491;41.942;24.220;2023-02-21T03:49:01;8.90;;;6.13;;
22648;SDS011;11491;41.942;24.220;2023-02-21T03:51:28;7.35;;;4.63;;
22648;SDS011;11491;41.942;24.220;2023-02-21T03:53:56;8.50;;;5.28;;
22648;SDS011;11491;41.942;24.220;2023-02-21T03:56:23;9.80;;;6.68;;
22648;SDS011;11491;41.942;24.220;2023-02-21T03:58:49;14.48;;;9.73;;
22648;SDS011;11491;41.942;24.220;2023-02-21T04:01:16;22.85;;;11.75;;
22648;SDS011;11491;41.942;24.220;2023-02-21T04:03:43;13.00;;;8.57;;
22648;SDS011;11491;41.942;24.220;2023-02-21T04:06:10;30.00;;;14.80;;
22648;SDS011;11491;41.942;24.220;2023-02-21T04:08:36;22.02;;;13.57;;
22648;SDS011;11491;41.942;24.220;2023-02-21T04:11:04;13.98;;;8.48;;
22648;SDS011;11491;41.942;24.220;2023-02-21T04:13:31;7.38;;;5.45;;
22648;SDS011;11491;41.942;24.220;2023-02-21T04:15:58;16.40;;;9.63;;
22648;SDS011;11491;41.942;24.220;2023-02-21T04:18:25;20.77;;;12.15;;
22648;SDS011;11491;41.942;24.220;2023-02-21T04:20:51;28.10;;;13.57;;
22648;SDS011;11491;41.942;24.220;2023-02-21T04:23:19;46.35;;;22.42;;
22648;SDS011;11491;41.942;24.220;2023-02-21T04:25:46;65.50;;;32.58;;
22648;SDS011;11491;41.942;24.220;2023-02-21T04:28:15;72.47;;;37.72;;
22648;SDS011;11491;41.942;24.220;2023-02-21T04:30:41;50.80;;;26.15;;
22648;SDS011;11491;41.942;24.220;2023-02-21T04:33:08;63.33;;;33.10;;
22648;SDS011;11491;41.942;24.220;2023-02-21T04:35:35;65.28;;;35.25;;
22648;SDS011;11491;41.942;24.220;2023-02-21T04:38:02;45.03;;;25.85;;
22648;SDS011;11491;41.942;24.220;2023-02-21T04:40:29;43.58;;;21.15;;
22648;SDS011;11491;41.942;24.220;2023-02-21T04:42:55;33.40;;;16.85;;
22648;SDS011;11491;41.942;24.220;2023-02-21T04:45:23;35.90;;;17.60;;
22648;SDS011;11491;41.942;24.220;2023-02-21T04:47:50;48.22;;;22.02;;
22648;SDS011;11491;41.942;24.220;2023-02-21T04:50:17;76.22;;;26.30;;
22648;SDS011;11491;41.942;24.220;2023-02-21T04:52:44;77.95;;;28.17;;
22648;SDS011;11491;41.942;24.220;2023-02-21T04:55:13;78.47;;;28.85;;
22648;SDS011;11491;41.942;24.220;2023-02-21T04:57:40;41.63;;;16.85;;
22648;SDS011;11491;41.942;24.220;2023-02-21T05:00:07;48.95;;;23.27;;
22648;SDS011;11491;41.942;24.220;2023-02-21T05:02:37;38.25;;;20.48;;
22648;SDS011;11491;41.942;24.220;2023-02-21T05:05:26;48.88;;;20.40;;
22648;SDS011;11491;41.942;24.220;2023-02-21T05:07:53;48.72;;;20.30;;
22648;SDS011;11491;41.942;24.220;2023-02-21T05:10:29;54.67;;;20.90;;
22648;SDS011;11491;41.942;24.220;2023-02-21T05:12:55;62.65;;;23.13;;
22648;SDS011;11491;41.942;24.220;2023-02-21T05:15:22;61.97;;;23.60;;
22648;SDS011;11491;41.942;24.220;2023-02-21T05:17:50;73.57;;;30.33;;
22648;SDS011;11491;41.942;24.220;2023-02-21T05:20:17;97.57;;;43.03;;
22648;SDS011;11491;41.942;24.220;2023-02-21T05:22:46;69.47;;;31.48;;
22648;SDS011;11491;41.942;24.220;2023-02-21T05:25:14;83.57;;;40.60;;
22648;SDS011;11491;41.942;24.220;2023-02-21T05:27:42;106.72;;;47.45;;
22648;SDS011;11491;41.942;24.220;2023-02-21T05:30:10;97.22;;;43.55;;
22648;SDS011;11491;41.942;24.220;2023-02-21T05:32:39;115.97;;;50.58;;
22648;SDS011;11491;41.942;24.220;2023-02-21T05:35:08;143.07;;;58.70;;
22648;SDS011;11491;41.942;24.220;2023-02-21T05:37:35;133.48;;;57.85;;
22648;SDS011;11491;41.942;24.220;2023-02-21T05:40:02;142.75;;;55.03;;
22648;SDS011;11491;41.942;24.220;2023-02-21T05:42:30;136.68;;;49.97;;
22648;SDS011;11491;41.942;24.220;2023-02-21T05:44:57;127.20;;;45.08;;
22648;SDS011;11491;41.942;24.220;2023-02-21T05:47:23;148.25;;;53.15;;
22648;SDS011;11491;41.942;24.220;2023-02-21T05:49:50;150.45;;;51.60;;
22648;SDS011;11491;41.942;24.220;2023-02-21T05:52:18;246.23;;;118.60;;
22648;SDS011;11491;41.942;24.220;2023-02-21T05:54:45;270.75;;;142.18;;
22648;SDS011;11491;41.942;24.220;2023-02-21T05:57:12;204.30;;;111.57;;
22648;SDS011;11491;41.942;24.220;2023-02-21T05:59:38;165.73;;;89.95;;
22648;SDS011;11491;41.942;24.220;2023-02-21T06:02:05;200.63;;;105.82;;
22648;SDS011;11491;41.942;24.220;2023-02-21T06:04:32;181.05;;;96.40;;
22648;SDS011;11491;41.942;24.220;2023-02-21T06:06:59;173.60;;;94.38;;
22648;SDS011;11491;41.942;24.220;2023-02-21T06:09:27;194.45;;;101.70;;
22648;SDS011;11491;41.942;24.220;2023-02-21T06:11:55;160.75;;;79.63;;
22648;SDS011;11491;41.942;24.220;2023-02-21T06:14:22;165.77;;;80.88;;
22648;SDS011;11491;41.942;24.220;2023-02-21T06:16:49;152.85;;;76.82;;
22648;SDS011;11491;41.942;24.220;2023-02-21T06:19:16;131.55;;;64.38;;
22648;SDS011;11491;41.942;24.220;2023-02-21T06:21:43;105.93;;;42.42;;
22648;SDS011;11491;41.942;24.220;2023-02-21T06:24:11;101.35;;;42.00;;
22648;SDS011;11491;41.942;24.220;2023-02-21T06:26:39;106.63;;;46.78;;
22648;SDS011;11491;41.942;24.220;2023-02-21T06:29:06;114.47;;;53.42;;
22648;SDS011;11491;41.942;24.220;2023-02-21T06:31:33;169.15;;;80.10;;
22648;SDS011;11491;41.942;24.220;2023-02-21T06:34:01;181.40;;;90.45;;
22648;SDS011;11491;41.942;24.220;2023-02-21T06:36:28;143.82;;;70.80;;
22648;SDS011;11491;41.942;24.220;2023-02-21T06:38:55;139.52;;;68.18;;
22648;SDS011;11491;41.942;24.220;2023-02-21T06:41:23;144.88;;;70.20;;
22648;SDS011;11491;41.942;24.220;2023-02-21T06:43:53;137.02;;;63.95;;
22648;SDS011;11491;41.942;24.220;2023-02-21T06:46:21;151.25;;;75.68;;
22648;SDS011;11491;41.942;24.220;2023-02-21T06:48:49;137.65;;;72.60;;
22648;SDS011;11491;41.942;24.220;2023-02-21T06:51:16;189.75;;;106.05;;
22648;SDS011;11491;41.942;24.220;2023-02-21T06:53:44;236.80;;;133.15;;
22648;SDS011;11491;41.942;24.220;2023-02-21T06:56:14;248.35;;;139.05;;
22648;SDS011;11491;41.942;24.220;2023-02-21T06:58:41;158.95;;;85.20;;
22648;SDS011;11491;41.942;24.220;2023-02-21T07:01:09;143.80;;;74.90;;
22648;SDS011;11491;41.942;24.220;2023-02-21T07:03:37;217.40;;;114.45;;
22648;SDS011;11491;41.942;24.220;2023-02-21T07:06:07;248.07;;;130.68;;
22648;SDS011;11491;41.942;24.220;2023-02-21T07:08:34;297.65;;;141.68;;
22648;SDS011;11491;41.942;24.220;2023-02-21T07:11:00;277.95;;;131.82;;
22648;SDS011;11491;41.942;24.220;2023-02-21T07:13:27;234.20;;;114.85;;
22648;SDS011;11491;41.942;24.220;2023-02-21T07:15:54;215.57;;;91.40;;
22648;SDS011;11491;41.942;24.220;2023-02-21T07:18:22;147.25;;;62.03;;
22648;SDS011;11491;41.942;24.220;2023-02-21T07:20:49;138.88;;;58.95;;
22648;SDS011;11491;41.942;24.220;2023-02-21T07:23:16;138.02;;;59.00;;
22648;SDS011;11491;41.942;24.220;2023-02-21T07:25:42;136.10;;;58.08;;
22648;SDS011;11491;41.942;24.220;2023-02-21T07:28:09;100.93;;;42.78;;
22648;SDS011;11491;41.942;24.220;2023-02-21T07:30:36;73.70;;;34.85;;
22648;SDS011;11491;41.942;24.220;2023-02-21T07:33:05;63.97;;;30.23;;
22648;SDS011;11491;41.942;24.220;2023-02-21T07:35:33;55.17;;;27.73;;
22648;SDS011;11491;41.942;24.220;2023-02-21T07:38:00;35.47;;;20.40;;
22648;SDS011;11491;41.942;24.220;2023-02-21T07:40:27;30.63;;;17.17;;
22648;SDS011;11491;41.942;24.220;2023-02-21T07:42:53;17.52;;;10.13;;
22648;SDS011;11491;41.942;24.220;2023-02-21T07:45:20;20.08;;;11.35;;
22648;SDS011;11491;41.942;24.220;2023-02-21T07:47:47;15.63;;;9.77;;
22648;SDS011;11491;41.942;24.220;2023-02-21T07:50:15;33.67;;;22.92;;
22648;SDS011;11491;41.942;24.220;2023-02-21T07:52:44;108.47;;;69.80;;
22648;SDS011;11491;41.942;24.220;2023-02-21T07:55:11;128.65;;;82.60;;
22648;SDS011;11491;41.942;24.220;2023-02-21T07:57:37;57.42;;;37.58;;
22648;SDS011;11491;41.942;24.220;2023-02-21T08:00:05;28.35;;;17.40;;
22648;SDS011;11491;41.942;24.220;2023-02-21T08:02:32;20.55;;;12.88;;
22648;SDS011;11491;41.942;24.220;2023-02-21T08:04:59;18.25;;;10.48;;
22648;SDS011;11491;41.942;24.220;2023-02-21T08:07:25;13.45;;;7.82;;
22648;SDS011;11491;41.942;24.220;2023-02-21T08:09:54;7.80;;;4.88;;
22648;SDS011;11491;41.942;24.220;2023-02-21T08:12:20;12.48;;;7.53;;
22648;SDS011;11491;41.942;24.220;2023-02-21T08:14:47;11.00;;;4.88;;
22648;SDS011;11491;41.942;24.220;2023-02-21T08:17:14;10.63;;;5.22;;
22648;SDS011;11491;41.942;24.220;2023-02-21T08:19:40;10.50;;;6.18;;
22648;SDS011;11491;41.942;24.220;2023-02-21T08:22:07;10.05;;;6.85;;
22648;SDS011;11491;41.942;24.220;2023-02-21T08:24:34;9.55;;;5.75;;
22648;SDS011;11491;41.942;24.220;2023-02-21T08:27:02;2.72;;;1.52;;
22648;SDS011;11491;41.942;24.220;2023-02-21T08:29:29;5.90;;;3.92;;
22648;SDS011;11491;41.942;24.220;2023-02-21T08:31:56;11.82;;;7.70;;
22648;SDS011;11491;41.942;24.220;2023-02-21T08:34:22;15.95;;;10.77;;
22648;SDS011;11491;41.942;24.220;2023-02-21T08:36:49;11.63;;;6.00;;
22648;SDS011;11491;41.942;24.220;2023-02-21T08:39:16;11.38;;;6.93;;
22648;SDS011;11491;41.942;24.220;2023-02-21T08:41:44;9.45;;;6.35;;
22648;SDS011;11491;41.942;24.220;2023-02-21T08:44:14;13.00;;;10.00;;
22648;SDS011;11491;41.942;24.220;2023-02-21T08:46:42;30.20;;;22.55;;
22648;SDS011;11491;41.942;24.220;2023-02-21T08:49:10;16.80;;;12.07;;
22648;SDS011;11491;41.942;24.220;2023-02-21T08:51:36;8.52;;;4.88;;
22648;SDS011;11491;41.942;24.220;2023-02-21T08:54:04;12.93;;;8.25;;
22648;SDS011;11491;41.942;24.220;2023-02-21T08:56:31;8.43;;;5.00;;
22648;SDS011;11491;41.942;24.220;2023-02-21T08:58:59;7.63;;;5.40;;
22648;SDS011;11491;41.942;24.220;2023-02-21T09:01:31;11.35;;;7.28;;
22648;SDS011;11491;41.942;24.220;2023-02-21T09:03:59;9.00;;;6.60;;
22648;SDS011;11491;41.942;24.220;2023-02-21T09:06:26;7.75;;;5.78;;
22648;SDS011;11491;41.942;24.220;2023-02-21T09:08:53;8.93;;;6.80;;
22648;SDS011;11491;41.942;24.220;2023-02-21T09:11:19;10.65;;;6.70;;
22648;SDS011;11491;41.942;24.220;2023-02-21T09:13:46;8.93;;;6.00;;
22648;SDS011;11491;41.942;24.220;2023-02-21T09:16:13;16.27;;;11.70;;
22648;SDS011;11491;41.942;24.220;2023-02-21T09:18:41;10.73;;;9.32;;
22648;SDS011;11491;41.942;24.220;2023-02-21T09:21:08;14.00;;;9.27;;
22648;SDS011;11491;41.942;24.220;2023-02-21T09:23:35;12.10;;;6.70;;
22648;SDS011;11491;41.942;24.220;2023-02-21T09:26:01;6.28;;;5.15;;
22648;SDS011;11491;41.942;24.220;2023-02-21T09:28:28;6.70;;;4.45;;
22648;SDS011;11491;41.942;24.220;2023-02-21T09:30:55;7.07;;;5.93;;
22648;SDS011;11491;41.942;24.220;2023-02-21T09:33:22;3.83;;;3.15;;
22648;SDS011;11491;41.942;24.220;2023-02-21T09:35:53;5.63;;;3.13;;
22648;SDS011;11491;41.942;24.220;2023-02-21T09:38:19;8.63;;;5.68;;
22648;SDS011;11491;41.942;24.220;2023-02-21T09:40:47;6.25;;;5.00;;
22648;SDS011;11491;41.942;24.220;2023-02-21T09:43:18;5.32;;;4.03;;
22648;SDS011;11491;41.942;24.220;2023-02-21T09:45:51;3.90;;;3.35;;
22648;SDS011;11491;41.942;24.220;2023-02-21T09:48:20;3.95;;;3.00;;
22648;SDS011;11491;41.942;24.220;2023-02-21T09:50:49;10.63;;;7.05;;
22648;SDS011;11491;41.942;24.220;2023-02-21T09:53:20;8.40;;;6.55;;
22648;SDS011;11491;41.942;24.220;2023-02-21T09:55:50;6.28;;;4.10;;
22648;SDS011;11491;41.942;24.220;2023-02-21T09:58:20;2.38;;;1.55;;
22648;SDS011;11491;41.942;24.220;2023-02-21T10:00:47;2.63;;;1.63;;
22648;SDS011;11491;41.942;24.220;2023-02-21T10:03:18;9.05;;;5.20;;
22648;SDS011;11491;41.942;24.220;2023-02-21T10:05:56;9.35;;;7.15;;
22648;SDS011;11491;41.942;24.220;2023-02-21T10:08:35;12.60;;;9.70;;
22648;SDS011;11491;41.942;24.220;2023-02-21T10:11:14;6.47;;;4.68;;
22648;SDS011;11491;41.942;24.220;2023-02-21T10:13:53;2.42;;;2.00;;
22648;SDS011;11491;41.942;24.220;2023-02-21T10:16:25;7.55;;;6.28;;
22648;SDS011;11491;41.942;24.220;2023-02-21T10:18:59;6.20;;;5.60;;
22648;SDS011;11491;41.942;24.220;2023-02-21T10:21:33;3.15;;;1.33;;
22648;SDS011;11491;41.942;24.220;2023-02-21T10:24:09;3.63;;;2.40;;
22648;SDS011;11491;41.942;24.220;2023-02-21T10:26:38;2.92;;;1.65;;
22648;SDS011;11491;41.942;24.220;2023-02-21T10:29:12;6.32;;;2.72;;
22648;SDS011;11491;41.942;24.220;2023-02-21T10:31:45;5.85;;;3.80;;
22648;SDS011;11491;41.942;24.220;2023-02-21T10:34:15;4.15;;;2.80;;
22648;SDS011;11491;41.942;24.220;2023-02-21T10:39:16;7.07;;;4.15;;
22648;SDS011;11491;41.942;24.220;2023-02-21T10:41:46;5.47;;;3.58;;
22648;SDS011;11491;41.942;24.220;2023-02-21T10:44:16;6.07;;;4.15;;
22648;SDS011;11491;41.942;24.220;2023-02-21T10:46:48;3.10;;;2.45;;
22648;SDS011;11491;41.942;24.220;2023-02-21T10:49:22;6.45;;;2.13;;
22648;SDS011;11491;41.942;24.220;2023-02-21T10:52:03;4.70;;;3.13;;
22648;SDS011;11491;41.942;24.220;2023-02-21T10:54:33;6.15;;;3.08;;
22648;SDS011;11491;41.942;24.220;2023-02-21T10:57:00;5.47;;;2.50;;
22648;SDS011;11491;41.942;24.220;2023-02-21T10:59:31;5.97;;;2.47;;
22648;SDS011;11491;41.942;24.220;2023-02-21T11:02:00;5.50;;;2.50;;
22648;SDS011;11491;41.942;24.220;2023-02-21T11:04:29;2.97;;;2.50;;
22648;SDS011;11491;41.942;24.220;2023-02-21T11:07:00;4.05;;;2.53;;
22648;SDS011;11491;41.942;24.220;2023-02-21T11:09:38;4.15;;;2.78;;
22648;SDS011;11491;41.942;24.220;2023-02-21T11:12:17;7.40;;;2.03;;
22648;SDS011;11491;41.942;24.220;2023-02-21T11:15:02;4.45;;;2.83;;
22648;SDS011;11491;41.942;24.220;2023-02-21T11:17:41;6.93;;;3.50;;
22648;SDS011;11491;41.942;24.220;2023-02-21T11:20:15;5.93;;;3.75;;
22648;SDS011;11491;41.942;24.220;2023-02-21T11:25:16;39.38;;;25.58;;
22648;SDS011;11491;41.942;24.220;2023-02-21T11:28:02;6.78;;;5.32;;
22648;SDS011;11491;41.942;24.220;2023-02-21T11:30:31;4.30;;;3.85;;
22648;SDS011;11491;41.942;24.220;2023-02-21T11:32:59;7.68;;;5.88;;
22648;SDS011;11491;41.942;24.220;2023-02-21T11:35:29;6.57;;;3.88;;
22648;SDS011;11491;41.942;24.220;2023-02-21T11:38:00;4.97;;;2.50;;
22648;SDS011;11491;41.942;24.220;2023-02-21T11:40:38;4.75;;;2.30;;
22648;SDS011;11491;41.942;24.220;2023-02-21T11:43:12;9.20;;;2.80;;
22648;SDS011;11491;41.942;24.220;2023-02-21T11:45:47;14.50;;;5.10;;
22648;SDS011;11491;41.942;24.220;2023-02-21T11:48:24;4.63;;;3.38;;
22648;SDS011;11491;41.942;24.220;2023-02-21T11:50:57;2.57;;;1.13;;
22648;SDS011;11491;41.942;24.220;2023-02-21T11:53:30;3.97;;;1.70;;
22648;SDS011;11491;41.942;24.220;2023-02-21T11:56:03;4.38;;;1.67;;
22648;SDS011;11491;41.942;24.220;2023-02-21T11:58:40;4.68;;;1.33;;
22648;SDS011;11491;41.942;24.220;2023-02-21T12:01:16;2.45;;;1.42;;
22648;SDS011;11491;41.942;24.220;2023-02-21T12:03:58;1.63;;;1.00;;
22648;SDS011;11491;41.942;24.220;2023-02-21T12:06:36;7.05;;;4.80;;
22648;SDS011;11491;41.942;24.220;2023-02-21T12:09:09;11.60;;;6.13;;
22648;SDS011;11491;41.942;24.220;2023-02-21T12:11:46;7.18;;;5.35;;
22648;SDS011;11491;41.942;24.220;2023-02-21T12:14:31;11.70;;;7.78;;
22648;SDS011;11491;41.942;24.220;2023-02-21T12:17:11;7.27;;;5.00;;
22648;SDS011;11491;41.942;24.220;2023-02-21T12:19:57;5.40;;;3.92;;
22648;SDS011;11491;41.942;24.220;2023-02-21T12:22:40;6.40;;;4.97;;
22648;SDS011;11491;41.942;24.220;2023-02-21T12:25:21;11.68;;;7.25;;
22648;SDS011;11491;41.942;24.220;2023-02-21T12:27:57;12.02;;;9.50;;
22648;SDS011;11491;41.942;24.220;2023-02-21T12:30:40;8.38;;;5.13;;
22648;SDS011;11491;41.942;24.220;2023-02-21T12:33:24;40.78;;;32.72;;
22648;SDS011;11491;41.942;24.220;2023-02-21T12:36:17;7.40;;;6.70;;
22648;SDS011;11491;41.942;24.220;2023-02-21T12:39:00;7.35;;;6.25;;
22648;SDS011;11491;41.942;24.220;2023-02-21T12:41:47;10.88;;;8.70;;
22648;SDS011;11491;41.942;24.220;2023-02-21T12:44:25;8.77;;;6.25;;
22648;SDS011;11491;41.942;24.220;2023-02-21T12:47:00;7.00;;;5.60;;
22648;SDS011;11491;41.942;24.220;2023-02-21T12:49:40;20.52;;;15.30;;
22648;SDS011;11491;41.942;24.220;2023-02-21T12:52:13;10.23;;;7.70;;
22648;SDS011;11491;41.942;24.220;2023-02-21T12:54:43;6.70;;;3.95;;
22648;SDS011;11491;41.942;24.220;2023-02-21T12:57:15;13.95;;;10.45;;
22648;SDS011;11491;41.942;24.220;2023-02-21T12:59:53;7.55;;;6.53;;
22648;SDS011;11491;41.942;24.220;2023-02-21T13:02:33;11.23;;;8.77;;
22648;SDS011;11491;41.942;24.220;2023-02-21T13:05:06;4.70;;;3.90;;
22648;SDS011;11491;41.942;24.220;2023-02-21T13:07:40;14.68;;;10.10;;
22648;SDS011;11491;41.942;24.220;2023-02-21T13:10:13;10.40;;;7.43;;
22648;SDS011;11491;41.942;24.220;2023-02-21T13:12:44;21.70;;;17.25;;
22648;SDS011;11491;41.942;24.220;2023-02-21T13:15:18;12.97;;;10.83;;
22648;SDS011;11491;41.942;24.220;2023-02-21T13:17:49;17.73;;;11.93;;
22648;SDS011;11491;41.942;24.220;2023-02-21T13:20:21;8.93;;;5.60;;
22648;SDS011;11491;41.942;24.220;2023-02-21T13:26:19;12.02;;;8.98;;
22648;SDS011;11491;41.942;24.220;2023-02-21T13:28:58;20.85;;;14.15;;
22648;SDS011;11491;41.942;24.220;2023-02-21T13:31:27;8.63;;;7.75;;
22648;SDS011;11491;41.942;24.220;2023-02-21T13:34:01;15.90;;;14.20;;
22648;SDS011;11491;41.942;24.220;2023-02-21T13:36:32;9.48;;;6.75;;
22648;SDS011;11491;41.942;24.220;2023-02-21T13:39:10;10.77;;;8.60;;
22648;SDS011;11491;41.942;24.220;2023-02-21T13:41:39;5.15;;;4.40;;
22648;SDS011;11491;41.942;24.220;2023-02-21T13:44:10;10.40;;;6.47;;
22648;SDS011;11491;41.942;24.220;2023-02-21T13:47:00;5.57;;;4.40;;
22648;SDS011;11491;41.942;24.220;2023-02-21T14:07:05;9.80;;;7.35;;
22648;SDS011;11491;41.942;24.220;2023-02-21T14:09:33;8.85;;;7.50;;
22648;SDS011;11491;41.942;24.220;2023-02-21T14:12:03;12.15;;;8.73;;
22648;SDS011;11491;41.942;24.220;2023-02-21T14:14:33;13.50;;;10.55;;
22648;SDS011;11491;41.942;24.220;2023-02-21T14:17:04;24.05;;;21.75;;
22648;SDS011;11491;41.942;24.220;2023-02-21T14:19:35;12.27;;;11.02;;
22648;SDS011;11491;41.942;24.220;2023-02-21T14:22:12;14.50;;;10.10;;
22648;SDS011;11491;41.942;24.220;2023-02-21T14:24:41;16.63;;;12.48;;
22648;SDS011;11491;41.942;24.220;2023-02-21T14:27:32;40.17;;;29.15;;
22648;SDS011;11491;41.942;24.220;2023-02-21T14:35:50;18.27;;;15.55;;
22648;SDS011;11491;41.942;24.220;2023-02-21T14:38:25;25.23;;;22.58;;
22648;SDS011;11491;41.942;24.220;2023-02-21T14:41:04;18.65;;;16.33;;
22648;SDS011;11491;41.942;24.220;2023-02-21T14:43:44;3.67;;;2.92;;
22648;SDS011;11491;41.942;24.220;2023-02-21T14:49:29;36.42;;;27.92;;
22648;SDS011;11491;41.942;24.220;2023-02-21T14:52:21;11.93;;;9.45;;
22648;SDS011;11491;41.942;24.220;2023-02-21T14:55:23;22.13;;;16.88;;
22648;SDS011;11491;41.942;24.220;2023-02-21T15:01:09;19.88;;;17.27;;
22648;SDS011;11491;41.942;24.220;2023-02-21T15:03:51;20.17;;;14.93;;
22648;SDS011;11491;41.942;24.220;2023-02-21T15:06:26;15.25;;;12.43;;
22648;SDS011;11491;41.942;24.220;2023-02-21T15:08:54;14.00;;;11.48;;
22648;SDS011;11491;41.942;24.220;2023-02-21T15:11:23;14.07;;;11.00;;
22648;SDS011;11491;41.942;24.220;2023-02-21T15:14:13;23.83;;;16.65;;
22648;SDS011;11491;41.942;24.220;2023-02-21T15:16:47;62.55;;;41.15;;
22648;SDS011;11491;41.942;24.220;2023-02-21T15:19:20;36.97;;;26.83;;
22648;SDS011;11491;41.942;24.220;2023-02-21T15:24:32;35.75;;;27.35;;
22648;SDS011;11491;41.942;24.220;2023-02-21T15:27:08;40.40;;;33.13;;
22648;SDS011;11491;41.942;24.220;2023-02-21T15:29:36;40.83;;;28.27;;
22648;SDS011;11491;41.942;24.220;2023-02-21T15:32:03;36.70;;;26.25;;
22648;SDS011;11491;41.942;24.220;2023-02-21T15:34:31;29.77;;;20.80;;
22648;SDS011;11491;41.942;24.220;2023-02-21T15:37:03;40.95;;;30.30;;
22648;SDS011;11491;41.942;24.220;2023-02-21T15:39:41;40.40;;;28.52;;
22648;SDS011;11491;41.942;24.220;2023-02-21T15:42:13;31.48;;;26.75;;
22648;SDS011;11491;41.942;24.220;2023-02-21T15:44:43;38.10;;;29.70;;
22648;SDS011;11491;41.942;24.220;2023-02-21T15:47:14;39.33;;;30.70;;
22648;SDS011;11491;41.942;24.220;2023-02-21T15:49:44;35.00;;;28.13;;
22648;SDS011;11491;41.942;24.220;2023-02-21T15:52:25;35.92;;;29.48;;
22648;SDS011;11491;41.942;24.220;2023-02-21T15:55:12;33.83;;;26.63;;
22648;SDS011;11491;41.942;24.220;2023-02-21T16:00:18;55.60;;;36.42;;
22648;SDS011;11491;41.942;24.220;2023-02-21T16:02:50;45.65;;;31.30;;
22648;SDS011;11491;41.942;24.220;2023-02-21T16:05:24;42.13;;;27.15;;